KPIM/PIM METAR and TAF weather

Enter ICAO airport designator
Station Type Date Time Source
KPIM METAR 2019/08/19 02:15 UTC NOAA

KPIM 190215Z AUTO 13004KT 10SM CLR 28/22 A3003 RMK AO2 T02780220


Station Type Date Time Source
KPIM Decoded METAR 2019/08/19 02:15 UTC NOAA

Station name not available
Aug 18, 2019 - 10:15 PM EDT / 2019.08.19 0215 UTC
Wind: from the SE (130 degrees) at 5 MPH (4 KT):0
Visibility: 10 mile(s):0
Sky conditions: clear
Temperature: 82.0 F (27.8 C)
Dew Point: 71.6 F (22.0 C)
Relative Humidity: 70%
Pressure (altimeter): 30.03 in. Hg (1016 hPa)
ob: KPIM 190215Z AUTO 13004KT 10SM CLR 28/22 A3003 RMK AO2 T02780220
cycle: 2

Station Type Date Time Source
KPIM TAF UTC NOAA

Error!

Example: see airport list